createdAt,value
2023-08-14T00:00:00.375Z,16.5
2023-08-14T00:04:00.468Z,16.5
2023-08-14T00:08:00.369Z,16.6
2023-08-14T00:12:00.393Z,16.7
2023-08-14T00:16:00.419Z,16.8
2023-08-14T00:20:00.388Z,16.7
2023-08-14T00:24:00.406Z,16.7
2023-08-14T00:28:00.377Z,16.6
2023-08-14T00:32:00.391Z,16.6
2023-08-14T00:36:00.368Z,16.6
2023-08-14T00:40:00.395Z,16.6
2023-08-14T00:44:00.383Z,16.6
2023-08-14T00:48:00.375Z,16.6
2023-08-14T00:52:00.374Z,16.6
2023-08-14T00:56:00.388Z,16.6
2023-08-14T01:00:00.383Z,16.6
2023-08-14T01:04:00.382Z,16.6
2023-08-14T01:08:00.374Z,16.5
2023-08-14T01:12:00.381Z,16.5
2023-08-14T01:16:00.441Z,16.4
2023-08-14T01:20:00.400Z,16.2
2023-08-14T01:24:00.382Z,16.2
2023-08-14T01:28:00.385Z,16
2023-08-14T01:32:00.358Z,16
2023-08-14T01:36:00.399Z,15.9
2023-08-14T01:40:00.392Z,15.9
2023-08-14T01:44:00.370Z,15.9
2023-08-14T01:48:00.429Z,15.9
2023-08-14T01:52:00.379Z,15.8
2023-08-14T01:56:00.379Z,15.8
2023-08-14T02:00:00.359Z,15.9
2023-08-14T02:04:00.372Z,15.8
2023-08-14T02:08:00.401Z,15.8
2023-08-14T02:12:00.379Z,15.8
2023-08-14T02:16:00.421Z,15.8
2023-08-14T02:20:00.375Z,15.8
2023-08-14T02:24:00.366Z,15.8
2023-08-14T02:28:00.389Z,15.8
2023-08-14T02:32:00.374Z,15.8
2023-08-14T02:36:00.396Z,15.8
2023-08-14T02:40:00.351Z,15.8
2023-08-14T02:44:00.400Z,15.7
2023-08-14T02:48:00.402Z,15.6
2023-08-14T02:52:00.370Z,15.6
2023-08-14T02:56:00.393Z,15.5
2023-08-14T03:00:00.383Z,15.5
2023-08-14T03:04:00.364Z,15.5
2023-08-14T03:08:00.364Z,15.5
2023-08-14T03:12:00.366Z,15.4
2023-08-14T03:16:00.373Z,15.3
2023-08-14T03:20:00.474Z,15.3
2023-08-14T03:24:00.386Z,15.3
2023-08-14T03:28:00.375Z,15.2
2023-08-14T03:32:00.406Z,15.2
2023-08-14T03:36:00.409Z,15.1
2023-08-14T03:40:00.393Z,15
2023-08-14T03:44:00.380Z,14.9
2023-08-14T03:48:00.428Z,14.8
2023-08-14T03:52:00.362Z,14.8
2023-08-14T03:56:00.409Z,14.8
2023-08-14T04:00:00.378Z,14.8
2023-08-14T04:04:00.458Z,14.8
2023-08-14T04:08:00.365Z,14.7
2023-08-14T04:12:00.371Z,14.8
2023-08-14T04:16:00.706Z,14.7
2023-08-14T04:20:00.392Z,14.7
2023-08-14T04:24:00.380Z,14.8
2023-08-14T04:28:00.370Z,14.8
2023-08-14T04:32:00.439Z,14.9
2023-08-14T04:36:00.357Z,14.9
2023-08-14T04:40:00.394Z,14.9
2023-08-14T04:44:00.367Z,15
2023-08-14T04:48:00.404Z,15.1
2023-08-14T04:52:00.390Z,15.3
2023-08-14T04:56:00.368Z,15.4
2023-08-14T05:00:00.433Z,15.6
2023-08-14T05:04:00.383Z,15.8
2023-08-14T05:08:00.392Z,16.7
2023-08-14T05:12:00.366Z,17
2023-08-14T05:16:08.210Z,17.2
2023-08-14T05:20:00.382Z,17.7
2023-08-14T05:24:00.399Z,18.3
2023-08-14T05:28:00.382Z,18.7
2023-08-14T05:32:00.371Z,19.2
2023-08-14T05:36:00.361Z,19.7
2023-08-14T05:40:00.385Z,19.7
2023-08-14T05:44:00.393Z,19.6
2023-08-14T05:48:00.410Z,19.5
2023-08-14T05:52:00.368Z,19.3
2023-08-14T05:56:00.395Z,19.3
2023-08-14T06:00:00.371Z,19.2
2023-08-14T06:04:00.407Z,19.3
2023-08-14T06:08:00.391Z,19.5
2023-08-14T06:12:00.378Z,19.8
2023-08-14T06:16:00.377Z,20.8
2023-08-14T06:20:00.394Z,22
2023-08-14T06:24:00.390Z,22.7
2023-08-14T06:28:00.362Z,23.4
2023-08-14T06:32:00.394Z,24
2023-08-14T06:36:00.405Z,24.4
2023-08-14T06:40:00.386Z,24.9
2023-08-14T06:44:00.382Z,25.4
2023-08-14T06:48:00.398Z,25.6
2023-08-14T06:52:00.371Z,25.9
2023-08-14T06:56:00.387Z,26.6
2023-08-14T07:00:00.358Z,27.2
2023-08-14T07:04:00.396Z,27.2
2023-08-14T07:08:00.371Z,27.2
2023-08-14T07:12:00.369Z,27.6
2023-08-14T07:16:00.422Z,27.5
2023-08-14T07:20:00.392Z,27.4
2023-08-14T07:24:00.375Z,28
2023-08-14T07:28:00.458Z,28.4
2023-08-14T07:32:00.349Z,28.9
2023-08-14T07:36:00.376Z,29.2
2023-08-14T07:40:00.389Z,29
2023-08-14T07:44:00.389Z,28.9
2023-08-14T07:48:00.384Z,29.2
2023-08-14T07:52:00.381Z,29
2023-08-14T07:56:00.347Z,29.1
2023-08-14T08:00:00.386Z,29.3
2023-08-14T08:04:00.378Z,29.2
2023-08-14T08:08:00.370Z,29
2023-08-14T08:12:00.383Z,28.9
2023-08-14T08:16:00.420Z,29.1
2023-08-14T08:20:00.426Z,29.2
2023-08-14T08:24:00.377Z,29.3
2023-08-14T08:28:00.357Z,29.7
2023-08-14T08:32:00.384Z,29.8
2023-08-14T08:36:00.348Z,29.8
2023-08-14T08:40:00.375Z,29.9
2023-08-14T08:44:00.371Z,29.8
2023-08-14T08:48:00.428Z,29.9
2023-08-14T08:52:00.384Z,30
2023-08-14T08:56:00.373Z,30.2
2023-08-14T09:00:00.375Z,30.2
2023-08-14T09:04:00.501Z,30.3
2023-08-14T09:08:00.386Z,30.3
2023-08-14T09:12:00.404Z,30.1
2023-08-14T09:16:00.354Z,29.9
2023-08-14T09:20:03.426Z,30.2
2023-08-14T09:24:00.408Z,30.7
2023-08-14T09:28:00.393Z,30.7
2023-08-14T09:32:00.370Z,30.7
2023-08-14T09:36:00.367Z,30.7
2023-08-14T09:40:00.357Z,30.8
2023-08-14T09:44:00.375Z,31
2023-08-14T09:48:00.539Z,31
2023-08-14T09:52:00.532Z,30.9
2023-08-14T09:56:06.080Z,31
2023-08-14T10:00:00.368Z,31.2
2023-08-14T10:04:00.353Z,31.1
2023-08-14T10:08:00.361Z,30.8
2023-08-14T10:12:00.365Z,30.8
2023-08-14T10:16:00.364Z,30.7
2023-08-14T10:20:00.381Z,31
2023-08-14T10:24:00.446Z,31
2023-08-14T10:28:00.369Z,31
2023-08-14T10:32:00.353Z,30.9
2023-08-14T10:36:00.384Z,31.1
2023-08-14T10:40:00.370Z,30.9
2023-08-14T10:44:00.363Z,31.2
2023-08-14T10:48:00.410Z,31.2
2023-08-14T10:52:00.348Z,31.3
2023-08-14T10:56:00.394Z,31.2
2023-08-14T11:00:00.366Z,31.5
2023-08-14T11:04:00.373Z,31.6
2023-08-14T11:08:00.353Z,31.6
2023-08-14T11:12:00.374Z,31.8
2023-08-14T11:16:00.512Z,31.8
2023-08-14T11:20:00.392Z,31.8
2023-08-14T11:24:00.385Z,31.9
2023-08-14T11:28:00.381Z,31.9
2023-08-14T11:32:00.444Z,32.1
2023-08-14T11:40:00.363Z,32.5
2023-08-14T11:44:00.361Z,32.6
2023-08-14T11:48:00.412Z,32.6
2023-08-14T11:52:00.378Z,32.4
2023-08-14T11:56:00.364Z,32.3
2023-08-14T12:00:00.401Z,32.8
2023-08-14T12:04:00.408Z,33.2
2023-08-14T12:08:00.378Z,33.3
2023-08-14T12:12:00.358Z,33.4
2023-08-14T12:16:01.329Z,33.5
2023-08-14T12:20:00.370Z,33.6
2023-08-14T12:24:00.361Z,33.7
2023-08-14T12:28:00.390Z,33.9
2023-08-14T12:32:00.369Z,33.9
2023-08-14T12:36:00.370Z,34.2
2023-08-14T12:40:00.424Z,34.4
2023-08-14T12:44:00.452Z,34.2
2023-08-14T12:48:00.452Z,34.4
2023-08-14T12:52:00.366Z,34.6
2023-08-14T12:56:03.815Z,34.7
2023-08-14T13:00:00.439Z,34.3
2023-08-14T13:04:00.598Z,33.8
2023-08-14T13:08:00.377Z,33.9
2023-08-14T13:12:01.173Z,34
2023-08-14T13:16:00.384Z,34.1
2023-08-14T13:20:00.388Z,34.4
2023-08-14T13:24:00.351Z,34.1
2023-08-14T13:28:00.371Z,33.5
2023-08-14T13:32:00.381Z,32.5
2023-08-14T13:36:00.361Z,31.6
2023-08-14T13:40:04.025Z,31.3
2023-08-14T13:44:00.362Z,31
2023-08-14T13:48:00.384Z,30.7
2023-08-14T13:52:00.374Z,30.6
2023-08-14T13:56:00.348Z,30.5
2023-08-14T14:00:00.446Z,30.5
2023-08-14T14:04:00.377Z,30.1
2023-08-14T14:08:00.608Z,30
2023-08-14T14:12:00.371Z,29.9
2023-08-14T14:16:00.420Z,29.8
2023-08-14T14:20:00.366Z,29.7
2023-08-14T14:24:00.379Z,29.6
2023-08-14T14:28:00.345Z,29.3
2023-08-14T14:32:00.383Z,29.1
2023-08-14T14:36:00.358Z,28.9
2023-08-14T14:40:00.422Z,28.6
2023-08-14T14:44:00.357Z,28.5
2023-08-14T14:48:00.420Z,28.1
2023-08-14T14:52:00.364Z,27.8
2023-08-14T14:56:00.356Z,27.6
2023-08-14T15:00:00.409Z,27.3
2023-08-14T15:04:00.500Z,27.2
2023-08-14T15:08:00.392Z,26.9
2023-08-14T15:12:00.398Z,26.8
2023-08-14T15:16:00.427Z,26.6
2023-08-14T15:20:00.384Z,26.3
2023-08-14T15:24:00.400Z,26.1
2023-08-14T15:28:00.365Z,26
2023-08-14T15:32:00.355Z,25.7
2023-08-14T15:36:00.375Z,25.4
2023-08-14T15:40:00.413Z,25.4
2023-08-14T15:44:00.346Z,25
2023-08-14T15:48:00.475Z,24.9
2023-08-14T15:52:00.375Z,24.4
2023-08-14T15:56:00.378Z,24.2
2023-08-14T16:00:00.380Z,24.1
2023-08-14T16:04:00.393Z,23.8
2023-08-14T16:08:00.383Z,23.6
2023-08-14T16:12:00.395Z,23.5
2023-08-14T16:16:00.432Z,23.3
2023-08-14T16:20:00.370Z,23.2
2023-08-14T16:24:00.369Z,23.2
2023-08-14T16:28:00.377Z,23.1
2023-08-14T16:32:00.359Z,23
2023-08-14T16:36:00.375Z,22.9
2023-08-14T16:40:00.379Z,22.9
2023-08-14T16:44:00.386Z,22.9
2023-08-14T16:48:00.406Z,22.8
2023-08-14T16:52:00.384Z,22.8
2023-08-14T16:56:00.356Z,22.7
2023-08-14T17:00:00.402Z,22.7
2023-08-14T17:04:00.417Z,22.8
2023-08-14T17:08:00.351Z,22.8
2023-08-14T17:12:00.359Z,22.9
2023-08-14T17:16:00.436Z,23.1
2023-08-14T17:20:00.369Z,23.2
2023-08-14T17:24:00.366Z,23.3
2023-08-14T17:28:00.370Z,23.4
2023-08-14T17:32:00.413Z,23.4
2023-08-14T17:36:00.364Z,23.3
2023-08-14T17:40:00.385Z,23.3
2023-08-14T17:44:00.351Z,23.2
2023-08-14T17:48:00.477Z,23.2
2023-08-14T17:52:00.394Z,23.2
2023-08-14T17:56:00.362Z,23
2023-08-14T18:00:00.443Z,23
2023-08-14T18:04:00.607Z,22.8
2023-08-14T18:08:00.377Z,22.6
2023-08-14T18:12:00.352Z,22.5
2023-08-14T18:16:00.481Z,22.4
2023-08-14T18:20:00.360Z,22.3
2023-08-14T18:24:00.373Z,22.2
2023-08-14T18:28:00.370Z,22
2023-08-14T18:32:00.396Z,21.8
2023-08-14T18:36:00.375Z,21.7
2023-08-14T18:40:00.376Z,21.5
2023-08-14T18:44:00.379Z,21.4
2023-08-14T18:48:00.422Z,21.3
2023-08-14T18:52:00.350Z,21.2
2023-08-14T18:56:00.386Z,21
2023-08-14T19:00:00.371Z,20.9
2023-08-14T19:04:00.425Z,20.8
2023-08-14T19:08:00.389Z,20.7
2023-08-14T19:12:00.364Z,20.6
2023-08-14T19:16:00.450Z,20.5
2023-08-14T19:20:00.349Z,20.4
2023-08-14T19:24:00.373Z,20.4
2023-08-14T19:28:08.078Z,20.4
2023-08-14T19:32:00.380Z,20.3
2023-08-14T19:36:00.373Z,20.2
2023-08-14T19:40:00.357Z,20.2
2023-08-14T19:44:00.360Z,20.1
2023-08-14T19:48:00.490Z,20
2023-08-14T19:52:00.370Z,19.9
2023-08-14T19:56:00.381Z,19.8
2023-08-14T20:00:00.392Z,19.8
2023-08-14T20:04:00.484Z,19.7
2023-08-14T20:08:00.370Z,19.6
2023-08-14T20:12:00.374Z,19.6
2023-08-14T20:16:00.359Z,19.6
2023-08-14T20:20:00.385Z,19.5
2023-08-14T20:24:00.391Z,19.5
2023-08-14T20:28:00.359Z,19.4
2023-08-14T20:32:00.370Z,19.4
2023-08-14T20:36:00.366Z,19.4
2023-08-14T20:40:00.429Z,19.3
2023-08-14T20:44:00.394Z,19.4
2023-08-14T20:48:01.170Z,19.3
2023-08-14T20:52:00.367Z,19.3
2023-08-14T20:56:00.388Z,19.3
2023-08-14T21:00:00.375Z,19.2
2023-08-14T21:04:00.493Z,19.2
2023-08-14T21:08:00.384Z,19.2
2023-08-14T21:12:00.380Z,19.3
2023-08-14T21:16:00.414Z,19.5
2023-08-14T21:20:00.395Z,19.6
2023-08-14T21:24:00.367Z,19.6
2023-08-14T21:28:00.409Z,19.5
2023-08-14T21:32:00.387Z,19.5
2023-08-14T21:36:00.426Z,19.6
2023-08-14T21:40:00.403Z,19.6
2023-08-14T21:44:00.382Z,19.7
2023-08-14T21:48:00.467Z,19.7
2023-08-14T21:52:00.447Z,19.6
2023-08-14T21:56:00.408Z,19.6
2023-08-14T22:00:00.368Z,19.6
2023-08-14T22:04:00.383Z,19.6
2023-08-14T22:08:00.365Z,19.6
2023-08-14T22:12:00.361Z,19.5
2023-08-14T22:16:00.387Z,19.6
2023-08-14T22:20:00.400Z,19.6
2023-08-14T22:24:00.397Z,19.5
2023-08-14T22:28:00.343Z,19.5
2023-08-14T22:32:00.372Z,19.5
2023-08-14T22:36:00.359Z,19.5
2023-08-14T22:40:00.421Z,19.5
2023-08-14T22:44:00.362Z,19.5
2023-08-14T22:48:00.423Z,19.5
2023-08-14T22:52:00.370Z,19.5
2023-08-14T22:56:00.369Z,19.6
2023-08-14T23:00:00.405Z,19.6
2023-08-14T23:04:00.372Z,19.7
2023-08-14T23:08:00.364Z,19.9
2023-08-14T23:12:00.342Z,20
2023-08-14T23:16:00.396Z,20.1
2023-08-14T23:20:00.395Z,20.2
2023-08-14T23:24:00.362Z,20.3
2023-08-14T23:28:00.353Z,20.4
2023-08-14T23:32:00.374Z,20.5
2023-08-14T23:36:00.371Z,20.6
2023-08-14T23:40:00.374Z,20.7
2023-08-14T23:44:00.346Z,20.7
2023-08-14T23:48:00.414Z,20.8
2023-08-14T23:52:00.346Z,20.8
2023-08-14T23:56:00.383Z,20.8
